WetterOnline ( https://www.wetteronline.de )

Wetter aktuell Erbeskopf

Aktuelles Wetter: Deuselbach (483m)

6-stündlich | Neueste Meldungen
Ortszeit Temperatur Wetter
Fr, 12.04. 8:00 10.3° C bewölkt
Fr, 12.04. 2:00 9.1° C wolkig
Do, 11.04. 20:00 13.4° C wolkig
Do, 11.04. 14:00 13.5° C bedeckt
Do, 11.04. 8:00 7.4° C wolkig
Do, 11.04. 2:00 6.8° C wolkenlos
Mi, 10.04. 20:00 10.9° C wolkig
Mi, 10.04. 14:00 9.1° C leicht bewölkt
Ortszeit Temperatur Wetter
Fr, 12.04. 12:30 14.0° C bedeckt
Fr, 12.04. 12:20 14.0° C bedeckt
Fr, 12.04. 12:10 13.7° C bedeckt
Fr, 12.04. 12:00 14.0° C bedeckt
Fr, 12.04. 11:50 14.0° C bedeckt
Fr, 12.04. 11:40 13.5° C bedeckt
Fr, 12.04. 11:30 13.4° C bedeckt
Fr, 12.04. 11:00 13.0° C bedeckt
Fr, 12.04. 10:30 12.2° C bedeckt
Fr, 12.04. 10:00 12.0° C bedeckt
Fr, 12.04. 9:30 11.8° C bedeckt
Ortszeit Relative Feuchte Sichtweite
Fr, 12.04. 8:00 90% 45 km
Fr, 12.04. 2:00 81% 60 km
Do, 11.04. 20:00 64% 60 km
Do, 11.04. 14:00 50% 50 km
Do, 11.04. 8:00 65% 40 km
Do, 11.04. 2:00 63% 55 km
Mi, 10.04. 20:00 54% 60 km
Mi, 10.04. 14:00 60% 45 km
Ortszeit Relative Feuchte Sichtweite
Fr, 12.04. 12:30 79% 65 km
Fr, 12.04. 12:20 79% -
Fr, 12.04. 12:10 79% -
Fr, 12.04. 12:00 79% 50 km
Fr, 12.04. 11:50 79% -
Fr, 12.04. 11:40 78% -
Fr, 12.04. 11:30 82% 55 km
Fr, 12.04. 11:00 85% 65 km
Fr, 12.04. 10:30 85% 35 km
Fr, 12.04. 10:00 88% 45 km
Fr, 12.04. 9:30 87% 65 km
Ortszeit Niederschlagsmenge Niederschlagsart
Fr, 12.04. 8:00 0.0 l/m2 in 12 Std. -
Fr, 12.04. 2:00 0.0 l/m2 in 6 Std. -
Do, 11.04. 20:00 0.0 l/m2 in 12 Std. -
Do, 11.04. 14:00 0.0 l/m2 in 6 Std. -
Do, 11.04. 8:00 0.0 l/m2 in 12 Std. -
Do, 11.04. 2:00 0.0 l/m2 in 6 Std. -
Mi, 10.04. 20:00 0.0 l/m2 in 12 Std. -
Mi, 10.04. 14:00 0.0 l/m2 in 6 Std. -
Ortszeit Niederschlagsmenge Niederschlagsart
Fr, 12.04. 12:30 0.0 l/m2 in 30 Min -
Fr, 12.04. 12:20 keine Meldung -
Fr, 12.04. 12:10 keine Meldung -
Fr, 12.04. 12:00 0.0 l/m2 in 1 Std. -
Fr, 12.04. 11:50 keine Meldung -
Fr, 12.04. 11:40 keine Meldung -
Fr, 12.04. 11:30 0.0 l/m2 in 30 Min -
Fr, 12.04. 11:00 0.0 l/m2 in 1 Std. Sprühregen
Fr, 12.04. 10:30 0.0 l/m2 in 30 Min -
Fr, 12.04. 10:00 <0.05 l/m2 in 1 Std. Sprühregen
Fr, 12.04. 9:30 <0.05 l/m2 in 30 Min Schnee
Ortszeit Stärke Spitze Richtung
km/h Bft. km/h Grad Sektor
Fr, 12.04. 8:00 6 1 11 190° S
Fr, 12.04. 2:00 7 2 7 190° S
Do, 11.04. 20:00 4 1 22 290° W
Do, 11.04. 14:00 9 2 24 250° W
Do, 11.04. 8:00 7 2 14 210° SW
Do, 11.04. 2:00 11 2 18 210° SW
Mi, 10.04. 20:00 11 2 18 250° W
Mi, 10.04. 14:00 11 2 26 280° W
Ortszeit Stärke Spitze Richtung
km/h Bft. km/h Grad Sektor
Fr, 12.04. 12:30 13 3 19 320° NW
Fr, 12.04. 12:20 13 3 - 320° NW
Fr, 12.04. 12:10 13 3 - 320° NW
Fr, 12.04. 12:00 7 2 14 280° W
Fr, 12.04. 11:50 7 2 - 280° W
Fr, 12.04. 11:40 4 1 - 330° NW
Fr, 12.04. 11:30 4 1 14 280° W
Fr, 12.04. 11:00 7 2 13 260° W
Fr, 12.04. 10:30 7 2 14 250° W
Fr, 12.04. 10:00 7 2 14 230° SW
Fr, 12.04. 9:30 6 1 9 230° SW
Ortszeit Untergrenze Bedeckung Gattung
total tief tief mittel hoch
Fr, 12.04. 8:00 420 m 7/8 7/8 - - -
Fr, 12.04. 2:00 7200 m 8/8 0/8 - - -
Do, 11.04. 20:00 5400 m 6/8 3/8 - - -
Do, 11.04. 14:00 1080 m 8/8 8/8 - - -
Do, 11.04. 8:00 7500 m 8/8 0/8 - - -
Do, 11.04. 2:00 - 0/8 0/8 - - -
Mi, 10.04. 20:00 1500 m 7/8 7/8 - - -
Mi, 10.04. 14:00 1080 m 3/8 3/8 - - -
Ortszeit Bedeckungsgrad in Achtel und Wolkenuntergrenze
Fr, 12.04. 12:30 3(540m) 8(840m)
Fr, 12.04. 12:20 3(540m) 8(840m)
Fr, 12.04. 12:10 8
Fr, 12.04. 12:00 7(510m) 8(720m)
Fr, 12.04. 11:50 7(510m) 8(720m)
Fr, 12.04. 11:40 8
Fr, 12.04. 11:30 5(360m) 8(540m)
Fr, 12.04. 11:00 7(360m) 8(540m)
Fr, 12.04. 10:30 4(330m) 8(480m)
Fr, 12.04. 10:00 3(360m) 8(480m)
Fr, 12.04. 9:30 1(240m) 8(420m)
Ortszeit Luftdruck NN (hPa) Tendenz (hPa in 3 Std.)
Fr, 12.04. 8:00 1034 - 0,2
Fr, 12.04. 2:00 1035 0,0
Do, 11.04. 20:00 1033 - 0,3
Do, 11.04. 14:00 1034 + 0,3
Do, 11.04. 8:00 1034 + 0,5
Do, 11.04. 2:00 1033 + 0,9
Mi, 10.04. 20:00 1031 + 0,5
Mi, 10.04. 14:00 1030 + 0,4
Ortszeit Luftdruck NN (hPa) Tendenz (hPa in 3 Std.)
Fr, 12.04. 12:30 1034 + 0,2
Fr, 12.04. 12:20 1034 keine Meldung
Fr, 12.04. 12:10 1034 keine Meldung
Fr, 12.04. 12:00 1034 + 0,3
Fr, 12.04. 11:50 1034 keine Meldung
Fr, 12.04. 11:40 1034 keine Meldung
Fr, 12.04. 11:30 1034 + 0,5
Fr, 12.04. 11:00 1034 + 0,7
Fr, 12.04. 10:30 1034 + 0,5
Fr, 12.04. 10:00 1034 + 0,7
Fr, 12.04. 9:30 1034 + 0,6
Ortszeit Schneehöhe (cm)
Fr, 12.04. 8:00 0
Fr, 12.04. 2:00 0
Do, 11.04. 20:00 0
Do, 11.04. 14:00 0
Do, 11.04. 8:00 0
Do, 11.04. 2:00 0
Mi, 10.04. 20:00 0
Mi, 10.04. 14:00 0
Ortszeit Schneehöhe (cm)
Fr, 12.04. 12:30 0
Fr, 12.04. 12:20 0
Fr, 12.04. 12:10 -
Fr, 12.04. 12:00 0
Fr, 12.04. 11:50 0
Fr, 12.04. 11:40 -
Fr, 12.04. 11:30 0
Fr, 12.04. 11:00 0
Fr, 12.04. 10:30 0
Fr, 12.04. 10:00 0
Fr, 12.04. 9:30 0
Link zu dieser Seite / Seite empfehlen

Das Wetter in ...